Alexis, North Carolina
Current Conditions -  °F | °C
As of 12:35 PM on Tuesday 21 Oct 2014 (Local Time) from KIPJ Reporting Station
Scattered Clouds Scattered Clouds  
Wind Chill: 71°   Ceiling: Unl
Heat Index: 71°   Visibility: 10mi
Dew Point: 46°   Wind: 9mph
Humidity: 40%   Direction: 250°WSW
Pressure: 29.93"   Gusts: NA
Location:  35.4°N, 81.12°W
Report Text: KIPJ 211635Z AUTO 25008KT 10SM SCT046 22/08 A2993 RMK AO2 T02170077
Loading
Personal Weather Stations






























Interactive Weather Map
Tropical Storm Tracking
New forecast layout! Learn more

10-Day Weather Forecast

Advertisements
Track Severe Weather on mobile